Time;durP1;ratioP1;P1;durP2;ratioP2;P2;SDS_P1;SDS_P2;PMS_P1;PMS_P2;Temp;Humidity;BMP_temperature;BMP_pressure;BME280_temperature;BME280_humidity;BME280_pressure;Samples;Min_cycle;Max_cycle;Signal;HPM_P1;HPM_P2
2021/12/02 00:01:13;;;;;;;7.13;1.47;;;;;;;;;;4951328;28;20035;-58
2021/12/02 00:03:41;;;;;;;2.50;1.20;;;;;;;;;;4959638;28;20027;-58
2021/12/02 00:06:09;;;;;;;8.80;1.00;;;;;;;;;;4975727;28;20031;-57
2021/12/02 00:08:36;;;;;;;10.47;1.43;;;;;;;;;;4975615;28;20117;-57
2021/12/02 00:11:04;;;;;;;5.67;0.90;;;;;;;;;;4975818;28;20055;-58
2021/12/02 00:13:36;;;;;;;4.73;1.13;;;;;;;;;;4975591;28;20034;-57
2021/12/02 00:21:32;;;;;;;3.87;1.30;;;;;;;;;;4950931;28;20483;-58
2021/12/02 00:23:59;;;;;;;2.27;1.10;;;;;;;;;;4950816;28;20495;-57
2021/12/02 00:26:27;;;;;;;2.50;0.87;;;;;;;;;;4953895;29;20410;-57
2021/12/02 00:28:56;;;;;;;3.83;1.07;;;;;;;;;;4973189;28;20030;-58
2021/12/02 00:31:24;;;;;;;5.73;1.90;;;;;;;;;;4975241;28;20027;-58
2021/12/02 00:33:57;;;;;;;5.70;1.60;;;;;;;;;;4974665;28;20046;-57
2021/12/02 00:36:25;;;;;;;7.97;2.03;;;;;;;;;;4975196;28;20027;-57
2021/12/02 00:38:52;;;;;;;18.80;2.33;;;;;;;;;;4971524;28;20031;-57
2021/12/02 00:41:20;;;;;;;7.70;1.47;;;;;;;;;;4970094;28;20097;-57
2021/12/02 00:43:48;;;;;;;4.33;1.43;;;;;;;;;;4969233;28;20030;-58
2021/12/02 00:46:17;;;;;;;7.13;1.50;;;;;;;;;;4969871;28;20517;-57
2021/12/02 00:48:45;;;;;;;9.57;1.70;;;;;;;;;;4962077;28;20114;-57
2021/12/02 00:51:12;;;;;;;8.57;1.60;;;;;;;;;;4957698;28;20036;-57
2021/12/02 00:53:44;;;;;;;10.23;2.03;;;;;;;;;;4975152;28;20027;-57
2021/12/02 00:56:13;;;;;;;8.73;1.37;;;;;;;;;;4974275;28;20026;-57
2021/12/02 00:58:40;;;;;;;12.77;2.23;;;;;;;;;;4974490;28;20462;-57
2021/12/02 01:01:08;;;;;;;6.47;1.47;;;;;;;;;;4970821;28;20035;-57
2021/12/02 01:03:37;;;;;;;5.57;1.70;;;;;;;;;;4967722;28;20482;-58
2021/12/02 01:06:05;;;;;;;2.67;1.13;;;;;;;;;;4967665;28;20031;-57
2021/12/02 01:08:32;;;;;;;3.87;1.87;;;;;;;;;;4969123;28;20068;-57
2021/12/02 01:10:59;;;;;;;7.60;1.27;;;;;;;;;;4972277;28;20101;-57
2021/12/02 01:13:27;;;;;;;10.13;1.70;;;;;;;;;;4974395;28;20034;-57
2021/12/02 01:15:53;;;;;;;6.47;1.90;;;;;;;;;;4974772;28;20034;-57
2021/12/02 01:18:21;;;;;;;7.93;2.40;;;;;;;;;;4974458;28;20018;-57
2021/12/02 01:20:49;;;;;;;8.27;2.00;;;;;;;;;;4974453;28;20070;-57
2021/12/02 01:23:17;;;;;;;10.30;2.57;;;;;;;;;;4965185;28;20031;-57
2021/12/02 01:25:48;;;;;;;9.50;2.20;;;;;;;;;;4949933;29;20869;-57
2021/12/02 01:28:17;;;;;;;5.87;2.60;;;;;;;;;;4949604;28;20023;-57
2021/12/02 01:30:45;;;;;;;11.43;2.23;;;;;;;;;;4949694;29;20451;-58
2021/12/02 01:33:14;;;;;;;6.70;2.40;;;;;;;;;;4952376;28;20035;-57
2021/12/02 01:35:42;;;;;;;15.40;2.57;;;;;;;;;;4960296;28;20518;-58
2021/12/02 01:38:10;;;;;;;5.77;1.70;;;;;;;;;;4969088;28;20031;-57
2021/12/02 01:40:37;;;;;;;4.60;2.20;;;;;;;;;;4954666;28;20046;-57
2021/12/02 01:43:05;;;;;;;9.10;1.87;;;;;;;;;;4958543;28;20026;-57
2021/12/02 01:45:33;;;;;;;5.63;1.80;;;;;;;;;;4970941;28;20123;-58
2021/12/02 01:48:03;;;;;;;6.30;2.67;;;;;;;;;;4968267;28;20039;-57
2021/12/02 01:50:32;;;;;;;7.50;3.27;;;;;;;;;;4968691;28;20030;-57
2021/12/02 01:53:00;;;;;;;5.70;2.53;;;;;;;;;;4968513;28;20023;-57
2021/12/02 01:55:28;;;;;;;5.57;1.80;;;;;;;;;;4956562;28;20031;-57
2021/12/02 01:57:59;;;;;;;4.73;2.23;;;;;;;;;;4954652;28;20032;-57
2021/12/02 02:00:33;;;;;;;8.67;2.33;;;;;;;;;;4954421;28;20352;-57
2021/12/02 02:03:02;;;;;;;7.93;2.63;;;;;;;;;;4956439;28;20506;-57
2021/12/02 02:05:31;;;;;;;4.13;2.13;;;;;;;;;;4969652;28;20038;-57
2021/12/02 02:08:05;;;;;;;11.20;2.80;;;;;;;;;;4954450;28;20375;-57
2021/12/02 02:10:37;;;;;;;14.70;2.58;;;;;;;;;;4968560;28;20027;-57
2021/12/02 02:13:10;;;;;;;4.80;2.13;;;;;;;;;;4967858;28;20041;-57
2021/12/02 02:15:38;;;;;;;4.97;2.70;;;;;;;;;;4968249;28;20111;-57
2021/12/02 02:18:14;;;;;;;11.47;4.73;;;;;;;;;;4970815;28;20097;-57
2021/12/02 02:20:51;;;;;;;6.80;3.27;;;;;;;;;;4973352;28;20118;-57
2021/12/02 02:23:21;;;;;;;7.47;2.90;;;;;;;;;;4973154;28;20497;-57
2021/12/02 02:25:48;;;;;;;6.43;2.60;;;;;;;;;;4957354;28;20039;-57
2021/12/02 02:28:15;;;;;;;7.90;2.70;;;;;;;;;;4954236;28;20498;-56
2021/12/02 02:30:43;;;;;;;8.37;3.10;;;;;;;;;;4949671;29;20043;-57
2021/12/02 02:33:11;;;;;;;12.97;2.60;;;;;;;;;;4948354;28;20032;-57
2021/12/02 02:35:39;;;;;;;6.57;2.50;;;;;;;;;;4953119;28;20377;-57
2021/12/02 02:38:06;;;;;;;7.23;2.57;;;;;;;;;;4962983;28;20042;-57
2021/12/02 02:40:36;;;;;;;9.07;2.03;;;;;;;;;;4952255;29;20054;-56
2021/12/02 02:43:09;;;;;;;6.03;1.87;;;;;;;;;;4953940;28;20039;-56
2021/12/02 02:45:37;;;;;;;10.87;2.73;;;;;;;;;;4953490;29;20114;-57
2021/12/02 02:48:04;;;;;;;7.33;2.13;;;;;;;;;;4953915;28;20059;-57
2021/12/02 02:50:32;;;;;;;3.93;1.80;;;;;;;;;;4953974;29;20031;-57
2021/12/02 02:53:21;;;;;;;9.60;2.30;;;;;;;;;;4953061;28;20026;-57
2021/12/02 02:56:14;;;;;;;11.47;2.27;;;;;;;;;;4965872;28;20058;-57
2021/12/02 03:08:59;;;;;;;6.70;2.80;;;;;;;;;;4972546;28;20328;-57
2021/12/02 03:11:28;;;;;;;11.97;2.63;;;;;;;;;;4973653;28;20474;-56
2021/12/02 03:13:55;;;;;;;8.67;3.17;;;;;;;;;;4975171;28;20042;-56
2021/12/02 03:16:44;;;;;;;7.50;2.53;;;;;;;;;;4970932;28;20080;-57
2021/12/02 03:19:15;;;;;;;9.87;2.20;;;;;;;;;;4970931;28;20125;-56
2021/12/02 03:21:43;;;;;;;9.43;2.07;;;;;;;;;;4970895;28;20062;-57
2021/12/02 03:24:10;;;;;;;5.03;2.27;;;;;;;;;;4972073;28;20486;-56
2021/12/02 03:26:37;;;;;;;7.83;2.70;;;;;;;;;;4966416;28;20027;-57
2021/12/02 03:29:05;;;;;;;6.13;2.10;;;;;;;;;;4957388;29;20027;-56
2021/12/02 03:31:32;;;;;;;9.70;2.70;;;;;;;;;;4957178;29;20027;-56
2021/12/02 03:34:00;;;;;;;5.30;2.10;;;;;;;;;;4957513;28;20470;-56
2021/12/02 03:36:27;;;;;;;6.37;2.20;;;;;;;;;;4955222;28;20035;-57
2021/12/02 03:38:54;;;;;;;6.83;2.03;;;;;;;;;;4951762;28;20540;-57
2021/12/02 03:41:21;;;;;;;5.93;2.07;;;;;;;;;;4967431;28;20031;-56
2021/12/02 03:43:49;;;;;;;7.17;2.17;;;;;;;;;;4970961;28;20123;-56
2021/12/02 03:46:17;;;;;;;8.37;1.83;;;;;;;;;;4971705;28;20034;-57
2021/12/02 03:48:44;;;;;;;11.53;2.40;;;;;;;;;;4976092;28;20034;-57
2021/12/02 03:51:11;;;;;;;2.30;1.53;;;;;;;;;;4962005;28;20071;-56
2021/12/02 03:53:38;;;;;;;5.83;1.80;;;;;;;;;;4956863;28;20019;-56
2021/12/02 03:56:09;;;;;;;4.03;1.60;;;;;;;;;;4962384;28;20074;-56
2021/12/02 03:58:37;;;;;;;4.40;1.60;;;;;;;;;;4974452;28;20026;-57
2021/12/02 04:01:05;;;;;;;5.37;2.07;;;;;;;;;;4970963;28;20038;-56
2021/12/02 04:03:32;;;;;;;5.77;3.10;;;;;;;;;;4962521;28;20118;-57
2021/12/02 04:05:59;;;;;;;9.30;2.93;;;;;;;;;;4951366;28;20135;-57
2021/12/02 04:08:48;;;;;;;6.10;2.47;;;;;;;;;;4952038;28;20115;-56
2021/12/02 04:14:02;;;;;;;4.43;2.23;;;;;;;;;;4963251;28;20129;-57
2021/12/02 04:16:32;;;;;;;4.37;1.77;;;;;;;;;;4975532;28;20435;-58
2021/12/02 04:18:59;;;;;;;3.80;1.60;;;;;;;;;;4969624;28;20039;-57
2021/12/02 04:21:26;;;;;;;2.83;1.70;;;;;;;;;;4972509;28;20085;-57
2021/12/02 04:23:53;;;;;;;3.93;1.53;;;;;;;;;;4969738;28;20038;-58
2021/12/02 04:26:19;;;;;;;4.60;1.53;;;;;;;;;;4970571;28;20026;-59
2021/12/02 04:28:46;;;;;;;2.33;1.40;;;;;;;;;;4966527;28;20084;-58
2021/12/02 04:31:13;;;;;;;2.80;1.47;;;;;;;;;;4972143;28;20030;-58
2021/12/02 04:33:40;;;;;;;3.33;1.60;;;;;;;;;;4975080;28;20031;-57
2021/12/02 04:36:07;;;;;;;3.80;1.40;;;;;;;;;;4975138;28;20466;-57
2021/12/02 04:38:33;;;;;;;4.37;1.77;;;;;;;;;;4956546;28;20032;-57
2021/12/02 04:41:00;;;;;;;3.17;1.60;;;;;;;;;;4956232;28;20106;-58
2021/12/02 04:43:27;;;;;;;3.50;1.93;;;;;;;;;;4957258;28;20485;-59
2021/12/02 04:45:54;;;;;;;3.40;1.50;;;;;;;;;;4951162;29;20126;-57
2021/12/02 04:48:21;;;;;;;3.67;1.70;;;;;;;;;;4951053;29;20028;-58
2021/12/02 04:50:48;;;;;;;3.50;1.47;;;;;;;;;;4951025;29;20046;-58
2021/12/02 04:53:15;;;;;;;4.13;1.87;;;;;;;;;;4959602;28;20023;-57
2021/12/02 04:55:42;;;;;;;5.03;2.13;;;;;;;;;;4972885;28;20095;-57
2021/12/02 04:58:09;;;;;;;5.27;1.80;;;;;;;;;;4972986;28;20102;-57
2021/12/02 05:00:36;;;;;;;2.40;1.40;;;;;;;;;;4972050;28;20033;-57
2021/12/02 05:03:02;;;;;;;2.17;1.40;;;;;;;;;;4973126;28;20031;-57
2021/12/02 05:05:29;;;;;;;2.27;1.50;;;;;;;;;;4971682;28;20031;-57
2021/12/02 05:07:59;;;;;;;9.40;2.20;;;;;;;;;;4957208;28;20498;-57
2021/12/02 05:10:26;;;;;;;4.40;1.80;;;;;;;;;;4948321;28;20819;-57
2021/12/02 05:12:52;;;;;;;8.30;2.10;;;;;;;;;;4949877;28;20094;-57
2021/12/02 05:15:19;;;;;;;7.50;2.70;;;;;;;;;;4950797;28;20027;-57
2021/12/02 05:17:46;;;;;;;4.17;2.20;;;;;;;;;;4955397;29;20027;-57
2021/12/02 05:20:13;;;;;;;5.20;2.10;;;;;;;;;;4955416;29;20024;-57
2021/12/02 05:22:40;;;;;;;5.07;2.13;;;;;;;;;;4955402;28;20027;-57
2021/12/02 05:25:07;;;;;;;4.13;1.80;;;;;;;;;;4955037;29;20483;-57
2021/12/02 05:27:34;;;;;;;4.27;1.97;;;;;;;;;;4954259;28;20058;-57
2021/12/02 05:30:00;;;;;;;6.87;1.73;;;;;;;;;;4950048;29;20043;-56
2021/12/02 05:32:30;;;;;;;3.70;1.70;;;;;;;;;;4949986;28;20027;-57
2021/12/02 05:34:57;;;;;;;5.10;1.50;;;;;;;;;;4949613;28;20184;-58
2021/12/02 05:37:24;;;;;;;3.00;1.57;;;;;;;;;;4950724;28;20031;-57
2021/12/02 05:39:51;;;;;;;3.73;1.80;;;;;;;;;;4961821;28;20470;-57
2021/12/02 05:42:18;;;;;;;3.07;1.67;;;;;;;;;;4954570;29;20474;-57
2021/12/02 05:44:45;;;;;;;2.70;1.53;;;;;;;;;;4954992;29;20479;-57
2021/12/02 05:47:12;;;;;;;4.07;1.30;;;;;;;;;;4962520;28;20031;-57
2021/12/02 05:49:39;;;;;;;3.17;1.90;;;;;;;;;;4973726;28;20470;-57
2021/12/02 05:52:06;;;;;;;5.37;1.90;;;;;;;;;;4968846;28;20023;-57
2021/12/02 05:54:33;;;;;;;2.47;1.40;;;;;;;;;;4968330;28;20530;-57
2021/12/02 05:56:59;;;;;;;3.00;1.40;;;;;;;;;;4968834;28;20446;-57
2021/12/02 05:59:26;;;;;;;3.33;1.63;;;;;;;;;;4968090;28;20038;-57
2021/12/02 06:01:53;;;;;;;3.47;1.40;;;;;;;;;;4974038;28;20390;-57
2021/12/02 06:04:20;;;;;;;6.00;1.70;;;;;;;;;;4957155;28;20399;-57
2021/12/02 06:06:46;;;;;;;4.90;1.37;;;;;;;;;;4955091;28;20023;-57
2021/12/02 06:09:15;;;;;;;3.33;1.40;;;;;;;;;;4973243;28;20034;-57
2021/12/02 06:11:42;;;;;;;3.00;1.37;;;;;;;;;;4973592;28;20118;-56
2021/12/02 06:14:09;;;;;;;2.87;1.23;;;;;;;;;;4967859;28;20593;-57
2021/12/02 06:16:35;;;;;;;3.70;1.17;;;;;;;;;;4968505;28;20061;-57
2021/12/02 06:19:02;;;;;;;2.53;1.30;;;;;;;;;;4963371;28;20090;-57
2021/12/02 06:21:29;;;;;;;2.00;1.20;;;;;;;;;;4968499;28;20058;-56
2021/12/02 06:23:56;;;;;;;5.47;1.50;;;;;;;;;;4971031;28;20031;-57
2021/12/02 06:26:23;;;;;;;2.30;1.13;;;;;;;;;;4973581;28;20394;-57
2021/12/02 06:28:50;;;;;;;2.03;1.37;;;;;;;;;;4973390;28;20038;-56
2021/12/02 06:31:16;;;;;;;2.47;1.27;;;;;;;;;;4973184;28;20023;-56
2021/12/02 06:33:43;;;;;;;2.00;1.13;;;;;;;;;;4972775;28;20019;-56
2021/12/02 06:36:10;;;;;;;4.00;1.53;;;;;;;;;;4968647;28;20030;-56
2021/12/02 06:38:36;;;;;;;2.33;1.30;;;;;;;;;;4955862;28;20027;-57
2021/12/02 06:41:03;;;;;;;3.03;1.17;;;;;;;;;;4949066;28;20483;-56
2021/12/02 06:43:30;;;;;;;1.70;1.00;;;;;;;;;;4948897;28;20459;-57
2021/12/02 06:45:57;;;;;;;2.30;1.20;;;;;;;;;;4953814;28;20038;-56
2021/12/02 06:48:24;;;;;;;2.17;1.13;;;;;;;;;;4959339;28;20023;-56
2021/12/02 06:50:51;;;;;;;3.37;1.80;;;;;;;;;;4977217;28;20042;-56
2021/12/02 06:53:19;;;;;;;2.27;1.27;;;;;;;;;;4970909;28;20447;-56
2021/12/02 06:55:46;;;;;;;3.13;1.73;;;;;;;;;;4957955;29;20031;-57
2021/12/02 06:58:13;;;;;;;3.67;1.70;;;;;;;;;;4953506;28;20107;-56
2021/12/02 07:00:39;;;;;;;3.10;1.47;;;;;;;;;;4952609;28;20103;-57
2021/12/02 07:03:06;;;;;;;2.33;1.33;;;;;;;;;;4952396;28;20071;-56
2021/12/02 07:05:33;;;;;;;1.67;1.10;;;;;;;;;;4952382;28;20118;-56
2021/12/02 07:08:01;;;;;;;3.10;1.80;;;;;;;;;;4961818;28;20038;-56
2021/12/02 07:10:30;;;;;;;3.30;1.43;;;;;;;;;;4976680;28;20037;-56
2021/12/02 07:12:58;;;;;;;2.83;1.43;;;;;;;;;;4976913;28;20327;-56
2021/12/02 07:15:29;;;;;;;2.77;1.30;;;;;;;;;;4976765;28;20034;-57
2021/12/02 07:17:57;;;;;;;2.20;1.30;;;;;;;;;;4976138;28;20027;-56
2021/12/02 07:20:25;;;;;;;1.90;1.30;;;;;;;;;;4956246;28;20352;-57
2021/12/02 07:22:51;;;;;;;4.37;1.43;;;;;;;;;;4971635;28;20261;-57
2021/12/02 07:25:18;;;;;;;8.23;1.60;;;;;;;;;;4971489;28;20038;-56
2021/12/02 07:27:47;;;;;;;1.83;1.10;;;;;;;;;;4971133;28;20019;-57
2021/12/02 07:30:14;;;;;;;2.10;1.17;;;;;;;;;;4974708;28;20265;-56
2021/12/02 07:32:41;;;;;;;2.73;1.27;;;;;;;;;;4975487;28;20311;-56
2021/12/02 07:35:12;;;;;;;3.17;1.30;;;;;;;;;;4976729;28;20828;-56
2021/12/02 07:37:49;;;;;;;2.83;1.40;;;;;;;;;;4966048;28;20265;-56
2021/12/02 07:40:16;;;;;;;2.00;1.33;;;;;;;;;;4972954;28;20265;-56
2021/12/02 07:42:45;;;;;;;2.63;1.20;;;;;;;;;;4952546;28;20301;-56
2021/12/02 07:45:11;;;;;;;2.77;1.20;;;;;;;;;;4951390;28;20300;-56
2021/12/02 07:47:40;;;;;;;4.47;1.13;;;;;;;;;;4951885;28;20257;-54
2021/12/02 07:50:07;;;;;;;3.13;1.27;;;;;;;;;;4966317;28;20272;-54
2021/12/02 07:52:35;;;;;;;2.83;1.17;;;;;;;;;;4971300;28;20348;-54
2021/12/02 07:55:09;;;;;;;3.80;1.30;;;;;;;;;;4956908;29;20268;-53
2021/12/02 07:57:35;;;;;;;1.63;0.93;;;;;;;;;;4956109;28;20293;-54
2021/12/02 08:00:03;;;;;;;4.33;1.13;;;;;;;;;;4957013;28;20269;-53
2021/12/02 08:02:33;;;;;;;2.50;0.80;;;;;;;;;;4958138;28;20257;-54
2021/12/02 08:05:00;;;;;;;2.00;1.10;;;;;;;;;;4971382;28;20288;-54
2021/12/02 08:07:27;;;;;;;2.10;1.00;;;;;;;;;;4966971;28;20273;-54
2021/12/02 08:09:54;;;;;;;1.80;1.00;;;;;;;;;;4970234;28;20335;-54
2021/12/02 08:12:21;;;;;;;7.87;1.40;;;;;;;;;;4970251;28;20268;-54
2021/12/02 08:14:49;;;;;;;2.87;1.20;;;;;;;;;;4973780;28;20272;-54
2021/12/02 08:17:16;;;;;;;1.40;1.00;;;;;;;;;;4975809;28;20273;-53
2021/12/02 08:19:43;;;;;;;1.87;0.97;;;;;;;;;;4958591;28;20780;-54
2021/12/02 08:22:10;;;;;;;3.20;1.30;;;;;;;;;;4957537;28;20624;-53
2021/12/02 08:24:37;;;;;;;1.63;0.83;;;;;;;;;;4975376;28;20747;-53
2021/12/02 08:27:04;;;;;;;2.07;1.10;;;;;;;;;;4971013;28;20280;-54
2021/12/02 08:29:32;;;;;;;1.70;0.90;;;;;;;;;;4969355;28;20267;-54
2021/12/02 08:32:01;;;;;;;1.73;0.97;;;;;;;;;;4970212;28;20257;-53
2021/12/02 08:34:28;;;;;;;1.67;0.90;;;;;;;;;;4969904;28;20276;-54
2021/12/02 08:36:56;;;;;;;1.43;1.00;;;;;;;;;;4973644;28;20976;-54
2021/12/02 08:39:28;;;;;;;2.60;0.97;;;;;;;;;;4964378;28;20332;-53
2021/12/02 08:41:55;;;;;;;3.23;1.10;;;;;;;;;;4955980;28;20281;-53
2021/12/02 08:44:24;;;;;;;2.67;1.00;;;;;;;;;;4955534;28;20610;-54
2021/12/02 08:46:52;;;;;;;1.63;0.77;;;;;;;;;;4955933;29;21060;-53
2021/12/02 08:49:19;;;;;;;1.83;1.10;;;;;;;;;;4951463;28;20301;-54
2021/12/02 08:51:46;;;;;;;1.77;0.90;;;;;;;;;;4950668;29;20308;-53
2021/12/02 08:54:13;;;;;;;1.97;1.10;;;;;;;;;;4951619;28;20780;-53
2021/12/02 08:56:40;;;;;;;2.60;1.30;;;;;;;;;;4950659;29;20329;-54
2021/12/02 08:59:07;;;;;;;3.73;1.20;;;;;;;;;;4953667;28;20270;-53
2021/12/02 09:01:34;;;;;;;2.47;1.30;;;;;;;;;;4955779;29;20336;-54
2021/12/02 09:04:04;;;;;;;2.50;1.30;;;;;;;;;;4955509;28;20265;-53
2021/12/02 09:06:31;;;;;;;1.80;1.17;;;;;;;;;;4955605;29;20269;-53
2021/12/02 09:08:59;;;;;;;2.60;1.10;;;;;;;;;;4961624;28;20786;-54
2021/12/02 09:11:30;;;;;;;2.43;0.83;;;;;;;;;;4970600;28;20285;-54
2021/12/02 09:13:58;;;;;;;5.10;1.00;;;;;;;;;;4969064;28;20352;-54
2021/12/02 09:16:29;;;;;;;1.80;1.03;;;;;;;;;;4969392;28;20288;-54
2021/12/02 09:18:56;;;;;;;2.13;1.17;;;;;;;;;;4968553;28;20280;-54
2021/12/02 09:21:24;;;;;;;2.63;1.00;;;;;;;;;;4972236;28;20339;-53
2021/12/02 09:23:51;;;;;;;1.53;1.00;;;;;;;;;;4964949;28;20276;-53
2021/12/02 09:26:18;;;;;;;2.50;1.23;;;;;;;;;;4954930;28;20374;-53
2021/12/02 09:28:52;;;;;;;1.27;0.83;;;;;;;;;;4955207;28;20779;-53
2021/12/02 09:31:19;;;;;;;1.70;1.00;;;;;;;;;;4955234;29;20332;-53
2021/12/02 09:33:46;;;;;;;1.80;1.00;;;;;;;;;;4950779;28;20289;-53
2021/12/02 09:36:12;;;;;;;1.53;1.00;;;;;;;;;;4949786;28;20614;-54
2021/12/02 09:38:39;;;;;;;1.17;0.60;;;;;;;;;;4954650;28;20328;-54
2021/12/02 09:41:06;;;;;;;1.77;1.23;;;;;;;;;;4958603;28;20296;-54
2021/12/02 09:43:33;;;;;;;1.70;0.93;;;;;;;;;;4953262;29;20257;-53
2021/12/02 09:45:59;;;;;;;4.47;1.10;;;;;;;;;;4955020;29;20320;-53
2021/12/02 09:48:28;;;;;;;1.60;0.90;;;;;;;;;;4961695;28;20268;-53
2021/12/02 09:51:02;;;;;;;1.77;0.73;;;;;;;;;;4973907;28;20293;-53
2021/12/02 09:53:34;;;;;;;1.65;1.00;;;;;;;;;;4972337;28;20276;-53
2021/12/02 09:58:52;;;;;;;1.33;0.87;;;;;;;;;;4960687;28;20273;-53
2021/12/02 10:01:21;;;;;;;2.00;0.90;;;;;;;;;;4968714;28;20276;-54
2021/12/02 10:03:52;;;;;;;3.03;1.10;;;;;;;;;;4968248;28;20304;-53
2021/12/02 10:06:27;;;;;;;1.10;0.70;;;;;;;;;;4973490;28;20290;-54
2021/12/02 10:08:59;;;;;;;1.85;0.90;;;;;;;;;;4962475;28;20776;-54
2021/12/02 10:11:29;;;;;;;1.87;0.67;;;;;;;;;;4954352;28;20547;-54
2021/12/02 10:14:10;;;;;;;3.63;0.90;;;;;;;;;;4970673;28;20623;-53
2021/12/02 10:16:41;;;;;;;5.03;0.93;;;;;;;;;;4955921;28;20289;-54
2021/12/02 10:19:12;;;;;;;2.20;1.20;;;;;;;;;;4949142;28;20327;-54
2021/12/02 10:21:43;;;;;;;2.30;1.23;;;;;;;;;;4949390;28;20278;-54
2021/12/02 10:24:17;;;;;;;2.13;1.17;;;;;;;;;;4949120;29;20767;-54
2021/12/02 10:26:45;;;;;;;1.80;0.97;;;;;;;;;;4950042;29;20324;-53
2021/12/02 10:29:22;;;;;;;1.37;1.00;;;;;;;;;;4967520;28;20817;-54
2021/12/02 10:32:03;;;;;;;1.97;0.93;;;;;;;;;;4973488;28;20295;-53
2021/12/02 10:34:30;;;;;;;2.03;1.03;;;;;;;;;;4960603;28;20749;-54
2021/12/02 10:37:08;;;;;;;2.90;1.30;;;;;;;;;;4973642;28;20253;-53
2021/12/02 10:39:35;;;;;;;1.37;1.00;;;;;;;;;;4970647;28;20688;-53
2021/12/02 10:42:06;;;;;;;1.73;0.80;;;;;;;;;;4967563;28;20265;-54
2021/12/02 10:44:34;;;;;;;1.70;1.20;;;;;;;;;;4951586;28;20296;-53
2021/12/02 10:47:09;;;;;;;1.57;1.00;;;;;;;;;;4966811;28;20367;-54
2021/12/02 10:49:39;;;;;;;0.82;0.60;;;;;;;;;;4970465;28;20264;-54
2021/12/02 10:52:07;;;;;;;1.37;0.90;;;;;;;;;;4973249;28;20055;-53
2021/12/02 10:54:35;;;;;;;1.23;0.70;;;;;;;;;;4972892;28;20338;-53
2021/12/02 10:57:07;;;;;;;1.43;0.90;;;;;;;;;;4973363;28;20260;-54
2021/12/02 10:59:45;;;;;;;1.83;1.07;;;;;;;;;;4972927;28;20265;-54
2021/12/02 11:02:28;;;;;;;1.43;1.03;;;;;;;;;;4969859;28;20265;-54
2021/12/02 11:05:04;;;;;;;1.23;0.97;;;;;;;;;;4948676;29;20797;-54
2021/12/02 11:07:33;;;;;;;1.80;1.07;;;;;;;;;;4948991;28;20260;-54
2021/12/02 11:10:01;;;;;;;2.73;0.90;;;;;;;;;;4956366;28;20299;-54
2021/12/02 11:12:29;;;;;;;1.90;1.20;;;;;;;;;;4971509;28;20273;-54
2021/12/02 11:14:58;;;;;;;1.20;0.80;;;;;;;;;;4961684;28;20601;-54
2021/12/02 11:17:30;;;;;;;1.70;1.00;;;;;;;;;;4953919;28;20261;-53
2021/12/02 11:19:57;;;;;;;2.20;1.00;;;;;;;;;;4953682;29;20269;-54
2021/12/02 11:22:25;;;;;;;1.70;1.00;;;;;;;;;;4953645;29;20269;-54
2021/12/02 11:24:52;;;;;;;1.97;1.20;;;;;;;;;;4949058;28;20904;-54
2021/12/02 11:27:37;;;;;;;2.37;1.07;;;;;;;;;;4948663;29;20418;-53
2021/12/02 11:30:20;;;;;;;1.52;0.90;;;;;;;;;;4948077;28;20777;-54
2021/12/02 11:32:49;;;;;;;5.73;1.30;;;;;;;;;;4952664;28;20035;-53
2021/12/02 11:35:24;;;;;;;2.77;1.57;;;;;;;;;;4976714;28;20257;-54
2021/12/02 11:37:53;;;;;;;1.35;0.95;;;;;;;;;;4976237;28;20664;-54
2021/12/02 11:40:22;;;;;;;3.10;1.60;;;;;;;;;;4975707;28;20490;-54
2021/12/02 11:42:50;;;;;;;3.23;1.87;;;;;;;;;;4976073;28;20267;-54
2021/12/02 11:45:18;;;;;;;2.20;1.30;;;;;;;;;;4975501;28;20324;-54
2021/12/02 11:47:45;;;;;;;3.97;1.40;;;;;;;;;;4953756;28;20266;-53
2021/12/02 11:50:13;;;;;;;2.20;1.27;;;;;;;;;;4971171;28;20264;-54
2021/12/02 11:52:41;;;;;;;3.50;1.50;;;;;;;;;;4970906;28;20768;-53
2021/12/02 11:55:13;;;;;;;6.60;2.47;;;;;;;;;;4969331;28;20265;-54
2021/12/02 11:57:40;;;;;;;4.47;1.50;;;;;;;;;;4975891;28;20281;-53
2021/12/02 12:00:09;;;;;;;6.37;4.20;;;;;;;;;;4976254;28;20264;-54
2021/12/02 12:02:37;;;;;;;2.60;1.73;;;;;;;;;;4974937;28;20275;-54
2021/12/02 12:05:05;;;;;;;8.40;5.23;;;;;;;;;;4956539;29;20293;-54
2021/12/02 12:07:42;;;;;;;8.63;4.90;;;;;;;;;;4955619;28;20277;-53
2021/12/02 12:10:21;;;;;;;8.20;5.00;;;;;;;;;;4951470;28;20266;-53
2021/12/02 12:12:48;;;;;;;4.97;2.83;;;;;;;;;;4951316;28;20356;-54
2021/12/02 12:15:33;;;;;;;4.93;2.87;;;;;;;;;;4951242;28;20253;-53
2021/12/02 12:18:01;;;;;;;3.45;1.83;;;;;;;;;;4953388;28;20265;-53
2021/12/02 12:20:46;;;;;;;7.53;2.40;;;;;;;;;;4956554;29;20023;-53
2021/12/02 12:23:31;;;;;;;6.78;3.03;;;;;;;;;;4956267;28;20756;-55
2021/12/02 12:26:16;;;;;;;7.90;2.95;;;;;;;;;;4975732;28;20047;-53
2021/12/02 12:29:01;;;;;;;7.93;2.90;;;;;;;;;;4965532;28;20045;-53
2021/12/02 12:31:29;;;;;;;6.78;3.63;;;;;;;;;;4951548;29;20024;-53
2021/12/02 12:33:58;;;;;;;6.63;3.40;;;;;;;;;;4962212;28;20054;-53
2021/12/02 12:36:36;;;;;;;5.30;2.83;;;;;;;;;;4970159;28;20253;-53
2021/12/02 12:39:18;;;;;;;4.00;2.10;;;;;;;;;;4962804;28;20273;-53
2021/12/02 12:42:07;;;;;;;6.80;2.53;;;;;;;;;;4955809;28;20269;-53
2021/12/02 12:44:50;;;;;;;3.77;1.63;;;;;;;;;;4954723;28;20349;-53
2021/12/02 12:47:17;;;;;;;5.53;2.40;;;;;;;;;;4955610;29;20305;-53
2021/12/02 12:49:47;;;;;;;4.53;1.90;;;;;;;;;;4973475;28;21196;-53
2021/12/02 12:52:18;;;;;;;5.90;2.30;;;;;;;;;;4973588;28;20253;-54
2021/12/02 12:55:03;;;;;;;8.13;2.43;;;;;;;;;;4951694;28;20277;-53
2021/12/02 12:57:30;;;;;;;5.30;2.22;;;;;;;;;;4950420;28;20254;-54
2021/12/02 12:59:57;;;;;;;7.13;2.50;;;;;;;;;;4950624;28;20038;-53
2021/12/02 13:02:27;;;;;;;3.83;2.27;;;;;;;;;;4952233;29;20288;-53
2021/12/02 13:04:55;;;;;;;11.60;3.47;;;;;;;;;;4966351;28;20375;-53
2021/12/02 13:07:22;;;;;;;4.57;1.93;;;;;;;;;;4974850;28;20265;-53
2021/12/02 13:09:54;;;;;;;3.73;2.00;;;;;;;;;;4960477;28;20727;-53
2021/12/02 13:12:27;;;;;;;7.33;2.10;;;;;;;;;;4954181;28;20284;-53
2021/12/02 13:14:54;;;;;;;8.40;2.33;;;;;;;;;;4952318;29;20261;-53
2021/12/02 13:17:39;;;;;;;6.03;2.60;;;;;;;;;;4950118;29;20348;-53
2021/12/02 13:20:20;;;;;;;5.88;2.10;;;;;;;;;;4953917;28;20346;-53
2021/12/02 13:23:28;;;;;;;4.30;2.27;;;;;;;;;;4953941;28;20420;-53
2021/12/02 13:25:59;;;;;;;3.67;2.00;;;;;;;;;;4876684;29;20322;-53
2021/12/02 13:28:36;;;;;;;6.00;2.83;;;;;;;;;;4877292;29;20660;-53
2021/12/02 13:31:09;;;;;;;6.50;2.60;;;;;;;;;;4923009;29;20264;-54
2021/12/02 13:33:38;;;;;;;6.33;2.90;;;;;;;;;;4954913;28;20269;-53
2021/12/02 13:36:06;;;;;;;7.67;2.30;;;;;;;;;;4958874;28;20744;-54
2021/12/02 13:38:32;;;;;;;8.47;2.30;;;;;;;;;;4949440;29;20301;-53
2021/12/02 13:41:10;;;;;;;6.30;2.50;;;;;;;;;;4966932;28;20694;-53
2021/12/02 13:43:51;;;;;;;6.00;2.60;;;;;;;;;;4968831;28;20367;-53
2021/12/02 13:46:17;;;;;;;9.00;2.70;;;;;;;;;;4969296;28;20289;-53
2021/12/02 13:48:59;;;;;;;8.53;4.30;;;;;;;;;;4963757;28;20268;-53
2021/12/02 13:54:22;;;;;;;4.65;2.85;;;;;;;;;;4954829;28;20269;-53
2021/12/02 13:56:49;;;;;;;9.33;2.43;;;;;;;;;;4954630;29;20028;-53
2021/12/02 13:59:20;;;;;;;5.50;3.10;;;;;;;;;;4952185;28;20361;-54
2021/12/02 14:01:52;;;;;;;6.53;3.63;;;;;;;;;;4949321;29;20297;-53
2021/12/02 14:04:18;;;;;;;5.27;3.00;;;;;;;;;;4948878;28;20356;-53
2021/12/02 14:06:45;;;;;;;4.47;2.50;;;;;;;;;;4953653;28;21094;-53
2021/12/02 14:09:18;;;;;;;4.53;2.77;;;;;;;;;;4956882;28;20269;-53
2021/12/02 14:11:45;;;;;;;11.57;5.43;;;;;;;;;;4954464;28;20265;-53
2021/12/02 14:14:18;;;;;;;5.90;3.50;;;;;;;;;;4954392;29;20784;-54
2021/12/02 14:16:45;;;;;;;5.20;3.00;;;;;;;;;;4953988;28;20269;-54
2021/12/02 14:19:13;;;;;;;6.60;2.73;;;;;;;;;;4954561;29;20594;-54
2021/12/02 14:21:40;;;;;;;4.10;2.47;;;;;;;;;;4952178;28;20273;-54
2021/12/02 14:24:06;;;;;;;5.00;2.47;;;;;;;;;;4961516;28;20542;-55
2021/12/02 14:26:33;;;;;;;4.53;2.47;;;;;;;;;;4967987;28;20435;-54
2021/12/02 14:29:00;;;;;;;3.73;2.43;;;;;;;;;;4967484;28;20027;-53
2021/12/02 14:31:30;;;;;;;4.20;2.20;;;;;;;;;;4970142;28;20041;-53
2021/12/02 14:33:58;;;;;;;5.90;3.97;;;;;;;;;;4973196;28;20034;-53
2021/12/02 14:36:29;;;;;;;5.67;3.40;;;;;;;;;;4971599;28;20035;-54
2021/12/02 14:38:59;;;;;;;5.67;3.13;;;;;;;;;;4954108;28;20025;-53
2021/12/02 14:41:28;;;;;;;7.70;3.20;;;;;;;;;;4964151;28;20031;-54
2021/12/02 14:43:59;;;;;;;4.03;2.93;;;;;;;;;;4969924;28;20026;-54
2021/12/02 14:46:32;;;;;;;5.10;3.20;;;;;;;;;;4967833;28;20093;-56
2021/12/02 14:49:00;;;;;;;3.80;2.70;;;;;;;;;;4967614;28;20066;-57
2021/12/02 14:51:27;;;;;;;5.63;2.23;;;;;;;;;;4967439;28;20445;-56
2021/12/02 14:53:55;;;;;;;4.83;2.60;;;;;;;;;;4967059;28;20381;-56
2021/12/02 14:56:24;;;;;;;4.30;2.67;;;;;;;;;;4972680;28;20541;-56
2021/12/02 14:59:10;;;;;;;3.80;2.33;;;;;;;;;;4973168;28;20035;-56
2021/12/02 15:01:56;;;;;;;3.92;2.45;;;;;;;;;;4954175;28;20034;-56
2021/12/02 15:04:24;;;;;;;5.60;2.37;;;;;;;;;;4955932;28;20475;-56
2021/12/02 15:06:51;;;;;;;7.03;2.30;;;;;;;;;;4967794;28;20169;-56
2021/12/02 15:09:28;;;;;;;4.57;3.03;;;;;;;;;;4952273;28;20156;-56
2021/12/02 15:11:55;;;;;;;3.80;2.30;;;;;;;;;;4952279;28;20043;-57
2021/12/02 15:14:32;;;;;;;3.53;1.97;;;;;;;;;;4952323;29;20023;-56
2021/12/02 15:16:59;;;;;;;2.57;1.70;;;;;;;;;;4957159;28;20019;-56
2021/12/02 15:19:42;;;;;;;3.60;1.93;;;;;;;;;;4957522;29;20031;-56
2021/12/02 15:22:27;;;;;;;4.07;2.10;;;;;;;;;;4960926;28;20097;-56